createdAt,value
2023-02-21T00:02:50.215Z,68.66
2023-02-21T00:05:53.073Z,68.53
2023-02-21T00:09:24.896Z,67.85
2023-02-21T00:13:01.034Z,67.36
2023-02-21T00:16:28.450Z,67.61
2023-02-21T00:20:06.921Z,67.22
2023-02-21T00:23:54.736Z,67.54
2023-02-21T00:27:44.751Z,67.53
2023-02-21T00:31:33.387Z,67.25
2023-02-21T00:35:33.943Z,66.82
2023-02-21T00:39:24.343Z,66.47
2023-02-21T00:43:32.253Z,66.14
2023-02-21T00:46:33.921Z,66.33
2023-02-21T00:50:23.250Z,66.48
2023-02-21T00:54:13.580Z,66.51
2023-02-21T00:57:27.220Z,66.27
2023-02-21T01:01:15.156Z,66.19
2023-02-21T01:05:15.951Z,66.22
2023-02-21T01:09:13.218Z,66.38
2023-02-21T01:13:02.239Z,66.20
2023-02-21T01:16:42.312Z,66.57
2023-02-21T01:20:32.701Z,66.60
2023-02-21T01:24:30.573Z,65.63
2023-02-21T01:28:11.864Z,65.39
2023-02-21T01:32:10.681Z,65.61
2023-02-21T01:36:17.546Z,65.31
2023-02-21T01:40:25.360Z,65.48
2023-02-21T01:44:40.837Z,65.84
2023-02-21T01:48:48.645Z,66.23
2023-02-21T01:52:17.985Z,66.21
2023-02-21T01:55:48.610Z,66.46
2023-02-21T01:59:38.855Z,67.14
2023-02-21T02:03:58.383Z,68.23
2023-02-21T02:07:56.197Z,68.33
2023-02-21T02:12:10.501Z,68.33
2023-02-21T02:16:23.990Z,68.70
2023-02-21T02:20:48.266Z,69.48
2023-02-21T02:25:21.643Z,69.61
2023-02-21T02:29:19.528Z,69.05
2023-02-21T02:33:30.252Z,68.24
2023-02-21T02:37:43.942Z,68.09
2023-02-21T02:41:48.704Z,67.72
2023-02-21T02:45:27.610Z,67.02
2023-02-21T02:49:19.697Z,66.92
2023-02-21T02:53:12.039Z,67.45
2023-02-21T02:57:12.854Z,67.31
2023-02-21T03:01:22.298Z,66.70
2023-02-21T03:05:43.709Z,66.51
2023-02-21T03:09:57.857Z,66.09
2023-02-21T03:14:16.410Z,66.18
2023-02-21T03:17:56.602Z,66.21
2023-02-21T03:22:05.829Z,65.94
2023-02-21T03:25:47.864Z,65.93
2023-02-21T03:29:44.941Z,65.60
2023-02-21T03:33:41.537Z,65.82
2023-02-21T03:37:29.238Z,66.32
2023-02-21T03:41:41.387Z,66.61
2023-02-21T03:45:29.837Z,66.57
2023-02-21T03:49:42.043Z,66.40
2023-02-21T03:53:51.307Z,66.43
2023-02-21T03:58:00.674Z,67.52
2023-02-21T04:02:09.609Z,67.84
2023-02-21T04:06:11.822Z,67.62
2023-02-21T04:10:06.758Z,68.47
2023-02-21T04:14:15.996Z,68.93
2023-02-21T04:18:25.478Z,69.46
2023-02-21T04:22:34.761Z,69.61
2023-02-21T04:26:44.001Z,69.17
2023-02-21T04:30:42.944Z,69.10
2023-02-21T04:34:52.376Z,69.10
2023-02-21T04:38:43.949Z,68.68
2023-02-21T04:42:14.357Z,68.23
2023-02-21T04:46:07.606Z,69.48
2023-02-21T04:49:55.849Z,69.11
2023-02-21T04:54:05.398Z,68.46
2023-02-21T04:57:47.102Z,69.39
2023-02-21T05:01:36.370Z,70.12
2023-02-21T05:05:37.011Z,69.77
2023-02-21T05:09:46.458Z,70.00
2023-02-21T05:13:23.029Z,70.08
2023-02-21T05:16:41.195Z,69.60
2023-02-21T05:20:50.415Z,69.24
2023-02-21T05:24:39.544Z,69.13
2023-02-21T05:28:42.092Z,69.05
2023-02-21T05:32:25.708Z,68.62
2023-02-21T05:36:35.062Z,69.10
2023-02-21T05:40:43.067Z,68.47
2023-02-21T05:44:29.286Z,68.32
2023-02-21T05:48:05.446Z,68.28
2023-02-21T05:52:15.858Z,67.92
2023-02-21T05:56:25.243Z,67.87
2023-02-21T06:00:34.737Z,67.59
2023-02-21T06:04:44.135Z,67.20
2023-02-21T06:08:45.918Z,67.32
2023-02-21T06:12:46.568Z,67.03
2023-02-21T06:16:55.911Z,67.07
2023-02-21T06:21:26.075Z,66.95
2023-02-21T06:25:35.670Z,66.22
2023-02-21T06:29:45.041Z,66.04
2023-02-21T06:33:54.675Z,66.04
2023-02-21T06:38:03.902Z,65.39
2023-02-21T06:42:13.360Z,65.06
2023-02-21T06:46:22.780Z,64.90
2023-02-21T06:50:32.275Z,65.12
2023-02-21T06:54:41.772Z,64.76
2023-02-21T06:58:51.357Z,64.61
2023-02-21T07:03:01.006Z,64.37
2023-02-21T07:07:10.554Z,64.78
2023-02-21T07:11:20.272Z,65.42
2023-02-21T07:15:29.862Z,65.10
2023-02-21T07:19:39.169Z,65.70
2023-02-21T07:23:48.545Z,65.79
2023-02-21T07:27:50.520Z,66.19
2023-02-21T07:32:01.613Z,66.65
2023-02-21T07:36:11.106Z,66.42
2023-02-21T07:40:20.514Z,66.16
2023-02-21T07:44:55.608Z,66.23
2023-02-21T07:48:32.994Z,65.88
2023-02-21T07:52:21.080Z,65.98
2023-02-21T07:55:58.116Z,65.24
2023-02-21T07:59:31.784Z,64.70
2023-02-21T08:03:33.798Z,64.27
2023-02-21T08:07:24.421Z,64.30
2023-02-21T08:11:34.008Z,63.71
2023-02-21T08:15:33.457Z,62.67
2023-02-21T08:19:12.039Z,61.99
2023-02-21T08:23:21.494Z,61.80
2023-02-21T08:26:33.418Z,61.13
2023-02-21T08:29:59.020Z,60.90
2023-02-21T08:33:35.597Z,60.17
2023-02-21T08:37:35.230Z,60.84
2023-02-21T08:41:28.574Z,63.33
2023-02-21T08:45:37.183Z,62.11
2023-02-21T08:49:45.310Z,60.72
2023-02-21T08:53:33.534Z,58.65
2023-02-21T08:57:41.768Z,61.82
2023-02-21T09:01:29.579Z,62.34
2023-02-21T09:05:23.696Z,59.73
2023-02-21T09:09:04.065Z,60.18
2023-02-21T09:12:56.026Z,63.03
2023-02-21T09:16:47.676Z,62.09
2023-02-21T09:20:41.670Z,60.71
2023-02-21T09:24:50.989Z,57.47
2023-02-21T09:28:46.069Z,59.94
2023-02-21T09:32:19.988Z,59.77
2023-02-21T09:36:29.132Z,59.90
2023-02-21T09:40:28.748Z,61.15
2023-02-21T09:44:00.109Z,60.48
2023-02-21T09:48:00.836Z,59.08
2023-02-21T09:51:49.900Z,56.23
2023-02-21T09:55:37.140Z,56.39
2023-02-21T09:59:16.206Z,56.52
2023-02-21T10:02:37.988Z,57.03
2023-02-21T10:06:48.064Z,54.86
2023-02-21T10:11:01.898Z,54.00
2023-02-21T10:15:43.877Z,54.18
2023-02-21T10:19:35.133Z,53.85
2023-02-21T10:23:42.983Z,54.11
2023-02-21T10:27:59.142Z,55.38
2023-02-21T10:32:17.081Z,55.57
2023-02-21T10:35:24.838Z,55.27
2023-02-21T10:39:34.129Z,54.93
2023-02-21T10:43:40.711Z,54.35
2023-02-21T10:47:55.686Z,52.96
2023-02-21T10:52:09.553Z,54.64
2023-02-21T10:55:47.543Z,54.02
2023-02-21T10:59:20.525Z,53.68
2023-02-21T11:03:31.829Z,53.82
2023-02-21T11:07:30.543Z,53.83
2023-02-21T11:11:31.122Z,52.47
2023-02-21T11:15:16.083Z,51.87
2023-02-21T11:19:08.581Z,51.93
2023-02-21T11:22:56.132Z,52.12
2023-02-21T11:27:05.963Z,52.49
2023-02-21T11:31:04.738Z,51.91
2023-02-21T11:35:12.434Z,52.64
2023-02-21T11:38:19.874Z,52.61
2023-02-21T11:42:31.166Z,53.06
2023-02-21T11:46:46.392Z,52.92
2023-02-21T11:51:00.895Z,53.92
2023-02-21T11:54:41.908Z,54.52
2023-02-21T11:58:52.050Z,53.46
2023-02-21T12:03:06.024Z,52.88
2023-02-21T12:06:52.411Z,52.91
2023-02-21T12:10:41.708Z,52.87
2023-02-21T12:15:01.267Z,52.63
2023-02-21T12:18:48.983Z,52.42
2023-02-21T12:22:55.309Z,51.47
2023-02-21T12:27:35.250Z,52.15
2023-02-21T12:31:08.169Z,52.01
2023-02-21T12:35:15.577Z,52.09
2023-02-21T12:39:12.375Z,50.80
2023-02-21T12:42:50.364Z,51.90
2023-02-21T12:46:31.613Z,51.33
2023-02-21T12:50:15.661Z,51.12
2023-02-21T12:53:47.605Z,51.89
2023-02-21T12:58:01.156Z,52.84
2023-02-21T13:01:14.631Z,52.68
2023-02-21T13:05:22.271Z,52.40
2023-02-21T13:09:12.166Z,53.67
2023-02-21T13:13:13.414Z,52.91
2023-02-21T13:16:26.535Z,53.02
2023-02-21T13:20:13.053Z,51.91
2023-02-21T13:24:00.377Z,51.37
2023-02-21T13:27:42.029Z,51.63
2023-02-21T13:31:44.349Z,52.13
2023-02-21T13:34:54.507Z,51.92
2023-02-21T13:38:11.840Z,52.45
2023-02-21T13:41:49.845Z,52.15
2023-02-21T13:46:04.200Z,52.72
2023-02-21T13:49:59.758Z,52.74
2023-02-21T13:53:55.735Z,52.21
2023-02-21T13:57:40.323Z,52.65
2023-02-21T14:01:39.061Z,53.23
2023-02-21T14:06:02.113Z,52.26
2023-02-21T14:09:40.395Z,52.07
2023-02-21T14:13:21.916Z,52.88
2023-02-21T14:17:01.288Z,52.58
2023-02-21T14:20:26.130Z,52.92
2023-02-21T14:23:55.133Z,53.67
2023-02-21T14:27:33.350Z,53.78
2023-02-21T14:31:10.957Z,54.16
2023-02-21T14:34:42.471Z,54.50
2023-02-21T14:38:08.656Z,55.04
2023-02-21T14:42:07.030Z,54.98
2023-02-21T14:46:03.859Z,55.71
2023-02-21T14:50:18.571Z,56.57
2023-02-21T14:54:19.070Z,56.84
2023-02-21T14:58:13.991Z,57.58
2023-02-21T15:02:14.425Z,57.97
2023-02-21T15:06:18.544Z,58.40
2023-02-21T15:09:57.598Z,58.41
2023-02-21T15:14:04.353Z,58.49
2023-02-21T15:17:42.061Z,58.38
2023-02-21T15:21:44.452Z,58.53
2023-02-21T15:25:00.015Z,58.88
2023-02-21T15:28:11.616Z,59.28
2023-02-21T15:32:20.329Z,59.47
2023-02-21T15:35:54.598Z,59.51
2023-02-21T15:39:54.536Z,59.84
2023-02-21T15:43:45.617Z,60.14
2023-02-21T15:47:23.514Z,60.39
2023-02-21T15:50:48.296Z,60.67
2023-02-21T15:54:50.014Z,60.73
2023-02-21T15:58:46.316Z,60.76
2023-02-21T16:02:38.651Z,60.07
2023-02-21T16:06:05.163Z,59.72
2023-02-21T16:08:59.851Z,59.72
2023-02-21T16:12:16.505Z,59.50
2023-02-21T16:15:50.315Z,59.21
2023-02-21T16:18:51.360Z,59.46
2023-02-21T16:22:43.074Z,59.40
2023-02-21T16:26:16.839Z,59.49
2023-02-21T16:28:45.797Z,59.76
2023-02-21T16:31:45.178Z,59.82
2023-02-21T16:34:59.422Z,59.90
2023-02-21T16:37:48.516Z,60.17
2023-02-21T16:40:25.166Z,60.29
2023-02-21T16:43:08.729Z,60.30
2023-02-21T16:46:34.748Z,60.50
2023-02-21T16:49:32.621Z,60.75
2023-02-21T16:53:18.595Z,60.99
2023-02-21T16:56:22.750Z,61.18
2023-02-21T16:59:21.522Z,61.40
2023-02-21T17:02:29.328Z,61.48
2023-02-21T17:05:22.317Z,61.58
2023-02-21T17:08:25.278Z,61.71
2023-02-21T17:10:56.983Z,61.60
2023-02-21T17:14:00.322Z,61.48
2023-02-21T17:16:47.545Z,61.69
2023-02-21T17:20:18.482Z,61.81
2023-02-21T17:22:54.853Z,61.79
2023-02-21T17:26:17.494Z,61.18
2023-02-21T17:29:20.591Z,61.19
2023-02-21T17:32:35.374Z,61.20
2023-02-21T17:35:56.859Z,61.05
2023-02-21T17:39:00.586Z,60.60
2023-02-21T17:42:30.761Z,60.64
2023-02-21T17:45:40.146Z,60.21
2023-02-21T17:48:31.467Z,60.18
2023-02-21T17:51:51.637Z,59.83
2023-02-21T17:55:11.031Z,59.85
2023-02-21T17:58:45.295Z,59.87
2023-02-21T18:02:25.209Z,59.78
2023-02-21T18:05:01.104Z,60.02
2023-02-21T18:07:58.826Z,60.07
2023-02-21T18:10:46.359Z,60.39
2023-02-21T18:13:26.497Z,60.53
2023-02-21T18:16:28.287Z,60.62
2023-02-21T18:20:05.443Z,60.82
2023-02-21T18:23:28.049Z,61.30
2023-02-21T18:26:36.224Z,61.80
2023-02-21T18:29:29.893Z,61.80
2023-02-21T18:32:40.255Z,61.96
2023-02-21T18:36:10.313Z,62.42
2023-02-21T18:39:35.990Z,62.64
2023-02-21T18:42:51.740Z,61.42
2023-02-21T18:46:01.326Z,56.55
2023-02-21T18:49:06.465Z,57.65
2023-02-21T18:52:28.211Z,59.32
2023-02-21T18:55:40.094Z,60.48
2023-02-21T18:59:07.248Z,61.33
2023-02-21T19:02:58.908Z,62.23
2023-02-21T19:05:48.451Z,62.15
2023-02-21T19:08:46.659Z,58.91
2023-02-21T19:12:09.581Z,57.49
2023-02-21T19:15:30.482Z,59.21
2023-02-21T19:19:04.712Z,60.69
2023-02-21T19:22:30.080Z,61.30
2023-02-21T19:26:06.779Z,61.81
2023-02-21T19:29:39.035Z,62.50
2023-02-21T19:33:40.751Z,57.66
2023-02-21T19:37:09.538Z,58.57
2023-02-21T19:41:19.017Z,60.04
2023-02-21T19:44:58.671Z,61.30
2023-02-21T19:48:49.663Z,62.16
2023-02-21T19:52:33.030Z,62.71
2023-02-21T19:55:41.945Z,58.44
2023-02-21T19:59:30.258Z,58.21
2023-02-21T20:03:36.080Z,60.15
2023-02-21T20:07:32.770Z,61.86
2023-02-21T20:11:28.086Z,62.61
2023-02-21T20:15:26.375Z,59.98
2023-02-21T20:19:09.369Z,57.34
2023-02-21T20:22:01.046Z,59.15
2023-02-21T20:25:25.789Z,60.58
2023-02-21T20:28:39.877Z,61.64
2023-02-21T20:31:24.125Z,62.51
2023-02-21T20:34:07.649Z,62.07
2023-02-21T20:37:05.270Z,58.78
2023-02-21T20:40:11.236Z,59.01
2023-02-21T20:43:44.778Z,60.41
2023-02-21T20:47:21.721Z,61.85
2023-02-21T20:50:21.891Z,62.78
2023-02-21T20:54:10.752Z,61.30
2023-02-21T20:57:48.553Z,57.69
2023-02-21T21:01:23.318Z,59.08
2023-02-21T21:04:00.401Z,60.65
2023-02-21T21:06:52.400Z,61.25
2023-02-21T21:10:00.470Z,62.20
2023-02-21T21:13:03.628Z,62.59
2023-02-21T21:15:54.668Z,60.36
2023-02-21T21:18:52.795Z,57.50
2023-02-21T21:21:46.002Z,58.52
2023-02-21T21:24:37.668Z,60.25
2023-02-21T21:27:22.643Z,61.08
2023-02-21T21:29:58.795Z,62.45
2023-02-21T21:32:49.394Z,63.00
2023-02-21T21:35:32.543Z,60.79
2023-02-21T21:38:26.627Z,58.12
2023-02-21T21:41:44.636Z,58.31
2023-02-21T21:45:08.413Z,59.97
2023-02-21T21:47:53.468Z,61.55
2023-02-21T21:50:30.768Z,62.58
2023-02-21T21:53:44.613Z,61.56
2023-02-21T21:57:27.111Z,59.08
2023-02-21T22:01:18.266Z,59.13
2023-02-21T22:04:19.830Z,61.65
2023-02-21T22:07:54.122Z,62.41
2023-02-21T22:10:49.007Z,61.47
2023-02-21T22:13:34.131Z,58.74
2023-02-21T22:16:43.203Z,58.40
2023-02-21T22:19:15.399Z,60.27
2023-02-21T22:22:26.264Z,61.59
2023-02-21T22:25:15.940Z,62.98
2023-02-21T22:28:46.886Z,61.47
2023-02-21T22:32:16.983Z,58.06
2023-02-21T22:34:53.368Z,59.11
2023-02-21T22:37:44.907Z,60.78
2023-02-21T22:40:47.055Z,61.99
2023-02-21T22:43:43.081Z,63.07
2023-02-21T22:46:36.799Z,61.56
2023-02-21T22:49:24.237Z,59.95
2023-02-21T22:52:32.608Z,57.94
2023-02-21T22:55:35.887Z,60.00
2023-02-21T22:59:27.742Z,61.33
2023-02-21T23:02:16.929Z,62.88
2023-02-21T23:05:31.036Z,61.03
2023-02-21T23:09:23.484Z,58.50
2023-02-21T23:12:15.319Z,59.56
2023-02-21T23:15:38.006Z,60.83
2023-02-21T23:19:14.741Z,63.06
2023-02-21T23:22:12.814Z,62.19
2023-02-21T23:25:19.929Z,58.57
2023-02-21T23:28:12.261Z,59.37
2023-02-21T23:31:31.456Z,60.50
2023-02-21T23:34:51.495Z,63.00
2023-02-21T23:37:43.325Z,62.19
2023-02-21T23:40:39.371Z,60.87
2023-02-21T23:44:15.009Z,58.41
2023-02-21T23:47:28.711Z,59.35
2023-02-21T23:50:30.471Z,61.11
2023-02-21T23:54:15.523Z,63.10
2023-02-21T23:57:13.462Z,62.01
